Time;durP1;ratioP1;P1;durP2;ratioP2;P2;SDS_P1;SDS_P2;PMS_P1;PMS_P2;Temp;Humidity;BMP_temperature;BMP_pressure;BME280_temperature;BME280_humidity;BME280_pressure;Samples;Min_cycle;Max_cycle;Signal;HPM_P1;HPM_P2
2021/10/22 00:02:55;;;;;;;0.17;0.17;;;;;;;9.53;100.00;99852.28;6338590;22;20022;-55
2021/10/22 00:05:57;;;;;;;1.50;0.35;;;;;;;9.43;100.00;99847.97;6338367;22;20049;-56
2021/10/22 00:09:00;;;;;;;0.60;0.35;;;;;;;9.36;100.00;99845.53;6318894;22;20041;-56
2021/10/22 00:12:06;;;;;;;0.47;0.43;;;;;;;9.38;100.00;99859.72;6338358;22;20088;-57
2021/10/22 00:15:11;;;;;;;0.15;0.15;;;;;;;9.43;100.00;99845.19;6338220;22;20026;-56
2021/10/22 00:18:17;;;;;;;9.75;0.43;;;;;;;9.49;100.00;99844.09;6319202;22;20025;-56
2021/10/22 00:21:21;;;;;;;1.27;0.50;;;;;;;9.50;100.00;99833.75;6338378;22;20068;-56
2021/10/22 00:24:24;;;;;;;5.03;0.35;;;;;;;9.60;100.00;99832.47;6337678;22;20025;-56
2021/10/22 00:27:28;;;;;;;0.10;0.10;;;;;;;9.67;100.00;99829.38;6338066;22;20022;-56
2021/10/22 00:30:30;;;;;;;0.20;0.10;;;;;;;9.70;100.00;99836.78;6318411;22;20021;-55
2021/10/22 00:33:33;;;;;;;0.10;0.10;;;;;;;9.73;100.00;99836.59;6317279;22;20095;-56
2021/10/22 00:36:37;;;;;;;0.10;0.10;;;;;;;9.79;100.00;99833.94;6335382;22;20477;-56
2021/10/22 00:39:40;;;;;;;0.10;0.10;;;;;;;9.81;100.00;99837.03;6337088;22;20071;-56
2021/10/22 00:42:45;;;;;;;0.10;0.10;;;;;;;9.84;100.00;99831.31;6338867;22;20068;-56
2021/10/22 00:45:51;;;;;;;0.10;0.10;;;;;;;9.88;100.00;99833.91;6337860;22;20037;-56
2021/10/22 00:48:54;;;;;;;0.10;0.10;;;;;;;9.92;100.00;99831.72;6337892;22;20076;-55
2021/10/22 00:51:58;;;;;;;0.10;0.10;;;;;;;9.87;100.00;99819.22;6337727;22;20053;-55
2021/10/22 00:55:01;;;;;;;0.52;0.20;;;;;;;9.79;100.00;99822.81;6336668;22;20106;-55
2021/10/22 00:58:04;;;;;;;0.13;0.10;;;;;;;9.80;100.00;99833.47;6336940;22;20022;-55
2021/10/22 01:01:08;;;;;;;0.10;0.10;;;;;;;9.82;100.00;99827.44;6337279;22;20076;-55
2021/10/22 01:04:11;;;;;;;0.20;0.20;;;;;;;9.85;100.00;99816.13;6337184;22;20064;-55
2021/10/22 01:07:15;;;;;;;6.47;0.90;;;;;;;9.84;100.00;99824.97;6337236;22;20029;-54
2021/10/22 01:10:18;;;;;;;2.28;0.63;;;;;;;9.87;100.00;99824.03;6336527;22;20075;-54
2021/10/22 01:13:21;;;;;;;0.43;0.20;;;;;;;9.96;100.00;99815.63;6336806;22;20029;-55
2021/10/22 01:16:24;;;;;;;0.13;0.13;;;;;;;9.87;100.00;99812.91;6336615;22;20026;-55
2021/10/22 01:19:27;;;;;;;2.38;0.43;;;;;;;9.77;100.00;99814.16;6336895;22;20026;-55
2021/10/22 01:22:29;;;;;;;0.57;0.40;;;;;;;9.67;100.00;99799.56;6317671;22;20382;-55
2021/10/22 01:25:33;;;;;;;0.57;0.10;;;;;;;9.68;100.00;99794.78;6336596;22;20519;-55
2021/10/22 01:28:36;;;;;;;2.45;0.95;;;;;;;9.65;100.00;99798.47;6317132;22;20025;-54
2021/10/22 01:31:39;;;;;;;1.52;0.63;;;;;;;9.70;100.00;99786.72;6336569;22;20108;-54
2021/10/22 01:34:44;;;;;;;0.20;0.10;;;;;;;9.72;100.00;99784.25;6336375;22;20414;-55
2021/10/22 01:37:48;;;;;;;2.00;0.55;;;;;;;9.72;100.00;99789.81;6337184;22;20103;-55
2021/10/22 01:40:55;;;;;;;0.25;0.20;;;;;;;9.73;100.00;99780.22;6317706;22;20347;-55
2021/10/22 01:44:01;;;;;;;0.10;0.03;;;;;;;9.78;100.00;99799.03;6336972;22;20026;-56
2021/10/22 01:47:04;;;;;;;0.20;0.20;;;;;;;9.84;100.00;99802.72;6336646;22;20099;-55
2021/10/22 01:50:08;;;;;;;0.10;0.10;;;;;;;9.80;100.00;99802.13;6336587;22;20053;-55
2021/10/22 01:53:14;;;;;;;0.35;0.35;;;;;;;9.66;100.00;99806.34;6336967;22;20033;-55
2021/10/22 01:56:17;;;;;;;0.10;0.10;;;;;;;9.55;100.00;99803.31;6336697;22;20344;-55
2021/10/22 01:59:20;;;;;;;2.00;0.77;;;;;;;9.51;100.00;99802.69;6336714;22;20462;-55
2021/10/22 02:02:23;;;;;;;12.48;1.13;;;;;;;9.46;100.00;99799.81;6336908;22;20079;-54
2021/10/22 02:05:26;;;;;;;0.73;0.60;;;;;;;9.50;100.00;99794.84;6336314;22;20026;-54
2021/10/22 02:08:30;;;;;;;1.20;0.55;;;;;;;9.48;100.00;99798.09;6336292;22;20145;-55
2021/10/22 02:11:33;;;;;;;9.95;1.85;;;;;;;9.53;100.00;99793.91;6336621;22;20022;-54
2021/10/22 02:14:35;;;;;;;0.10;0.10;;;;;;;9.59;100.00;99792.03;6336683;22;20029;-55
2021/10/22 02:17:39;;;;;;;0.20;0.20;;;;;;;9.60;100.00;99785.22;6336564;22;20026;-55
2021/10/22 02:20:42;;;;;;;0.52;0.40;;;;;;;9.56;100.00;99787.41;6316920;22;20494;-55
2021/10/22 02:23:45;;;;;;;0.25;0.25;;;;;;;9.62;100.00;99785.50;6336528;22;20044;-55
2021/10/22 02:26:47;;;;;;;1.95;0.40;;;;;;;9.69;100.00;99774.06;6336704;22;20045;-55
2021/10/22 02:29:50;;;;;;;0.10;0.10;;;;;;;9.63;100.00;99782.28;6336936;22;20067;-55
2021/10/22 02:32:53;;;;;;;0.10;0.10;;;;;;;9.65;100.00;99776.25;6336628;22;20075;-55
2021/10/22 02:35:56;;;;;;;0.10;0.10;;;;;;;9.71;100.00;99788.25;6336871;22;20030;-55
2021/10/22 02:38:59;;;;;;;0.17;0.17;;;;;;;9.75;100.00;99786.06;6336836;22;20496;-55
2021/10/22 02:42:03;;;;;;;2.90;0.47;;;;;;;9.74;100.00;99782.53;6317832;22;20029;-55
2021/10/22 02:45:06;;;;;;;0.10;0.10;;;;;;;9.70;100.00;99781.91;6318848;22;20025;-55
2021/10/22 02:48:09;;;;;;;0.85;0.32;;;;;;;9.67;100.00;99776.53;6339001;22;20102;-55
2021/10/22 02:51:12;;;;;;;0.30;0.20;;;;;;;9.68;100.00;99786.44;6339350;22;20107;-55
2021/10/22 02:54:15;;;;;;;0.20;0.20;;;;;;;9.74;100.00;99776.19;6338535;22;20098;-55
2021/10/22 02:57:17;;;;;;;0.10;0.10;;;;;;;9.80;100.00;99777.09;6339145;22;20026;-55
2021/10/22 03:00:21;;;;;;;0.13;0.13;;;;;;;9.75;100.00;99774.94;6338495;22;20022;-55
2021/10/22 03:03:24;;;;;;;0.20;0.20;;;;;;;9.72;100.00;99773.13;6319828;22;20049;-54
2021/10/22 03:06:27;;;;;;;0.20;0.20;;;;;;;9.73;100.00;99775.41;6337549;22;20072;-55
2021/10/22 03:09:30;;;;;;;0.25;0.15;;;;;;;9.83;100.00;99773.38;6338898;22;20466;-55
2021/10/22 03:12:35;;;;;;;0.10;0.10;;;;;;;9.81;100.00;99764.72;6338783;22;20022;-55
2021/10/22 03:15:38;;;;;;;0.10;0.10;;;;;;;9.74;100.00;99757.50;6338603;22;20025;-55
2021/10/22 03:18:41;;;;;;;0.28;0.28;;;;;;;9.70;100.00;99759.66;6319359;22;20068;-55
2021/10/22 03:21:44;;;;;;;0.10;0.10;;;;;;;9.70;100.00;99758.91;6338556;22;20338;-55
2021/10/22 03:24:47;;;;;;;0.28;0.28;;;;;;;9.70;100.00;99770.03;6338456;22;20037;-55
2021/10/22 03:27:51;;;;;;;0.20;0.20;;;;;;;9.84;100.00;99758.22;6338614;22;20499;-55
2021/10/22 03:30:54;;;;;;;0.10;0.10;;;;;;;9.96;100.00;99765.56;6338811;22;20091;-55
2021/10/22 03:33:57;;;;;;;1.35;0.20;;;;;;;9.97;100.00;99772.66;6338761;22;20064;-55
2021/10/22 03:37:01;;;;;;;0.40;0.10;;;;;;;9.98;100.00;99785.34;6338369;22;20466;-54
2021/10/22 03:40:04;;;;;;;0.57;0.10;;;;;;;9.94;100.00;99777.16;6338644;22;20025;-55
2021/10/22 03:43:08;;;;;;;1.00;0.32;;;;;;;9.97;100.00;99792.13;6339100;22;20085;-55
2021/10/22 03:46:11;;;;;;;0.30;0.30;;;;;;;9.98;100.00;99790.91;6319080;22;20071;-55
2021/10/22 03:49:14;;;;;;;0.10;0.10;;;;;;;9.94;100.00;99790.28;6338547;22;20021;-54
2021/10/22 03:52:17;;;;;;;0.10;0.10;;;;;;;9.89;100.00;99790.94;6338621;22;20359;-54
2021/10/22 03:55:20;;;;;;;7.57;0.63;;;;;;;9.81;100.00;99792.53;6338272;22;20029;-54
2021/10/22 03:58:24;;;;;;;0.22;0.22;;;;;;;9.77;100.00;99795.47;6338268;22;20068;-54
2021/10/22 04:01:27;;;;;;;0.77;0.40;;;;;;;9.79;100.00;99790.22;6338317;22;20470;-54
2021/10/22 04:04:30;;;;;;;0.20;0.20;;;;;;;9.82;100.00;99788.50;6338301;22;20021;-54
2021/10/22 04:07:34;;;;;;;0.60;0.30;;;;;;;9.88;100.00;99784.59;6338469;22;20088;-54
2021/10/22 04:10:41;;;;;;;0.10;0.10;;;;;;;9.91;100.00;99785.69;6318816;22;20022;-54
2021/10/22 04:13:44;;;;;;;0.10;0.10;;;;;;;9.94;100.00;99784.72;6340245;22;20152;-54
2021/10/22 04:16:47;;;;;;;5.03;0.20;;;;;;;9.98;100.00;99790.13;6340103;22;20396;-54
2021/10/22 04:19:51;;;;;;;1.17;0.10;;;;;;;10.01;100.00;99789.94;6340489;22;20115;-54
2021/10/22 04:22:54;;;;;;;0.10;0.10;;;;;;;9.98;100.00;99774.22;6340334;22;20068;-54
2021/10/22 04:25:57;;;;;;;0.10;0.10;;;;;;;9.93;100.00;99788.75;6340366;22;20022;-54
2021/10/22 04:29:00;;;;;;;0.10;0.10;;;;;;;9.93;100.00;99777.63;6339850;22;20098;-54
2021/10/22 04:32:03;;;;;;;0.10;0.03;;;;;;;9.89;100.00;99788.16;6340373;22;20393;-54
2021/10/22 04:35:07;;;;;;;3.72;0.30;;;;;;;9.83;100.00;99784.50;6339810;22;20087;-55
2021/10/22 04:41:22;;;;;;;0.35;0.15;;;;;;;9.85;100.00;99793.13;6338948;22;20059;-54
2021/10/22 04:44:27;;;;;;;0.63;0.63;;;;;;;9.88;100.00;99786.59;6339716;22;20022;-55
2021/10/22 04:47:29;;;;;;;0.10;0.10;;;;;;;9.84;100.00;99797.91;6339891;22;20025;-54
2021/10/22 04:50:34;;;;;;;0.32;0.32;;;;;;;9.83;100.00;99799.16;6340136;22;20037;-54
2021/10/22 04:53:37;;;;;;;0.20;0.20;;;;;;;9.83;100.00;99790.81;6320545;22;20073;-55
2021/10/22 04:56:40;;;;;;;0.20;0.20;;;;;;;9.82;100.00;99805.19;6340058;22;20351;-55
2021/10/22 04:59:43;;;;;;;0.30;0.30;;;;;;;9.81;100.00;99798.84;6339688;22;20025;-55
2021/10/22 05:02:47;;;;;;;0.60;0.40;;;;;;;9.77;100.00;99787.13;6320889;22;20094;-55
2021/10/22 05:05:51;;;;;;;0.10;0.10;;;;;;;9.72;100.00;99787.78;6339808;22;20068;-56
2021/10/22 05:08:53;;;;;;;0.65;0.47;;;;;;;9.68;100.00;99789.22;6339801;22;20144;-56
2021/10/22 05:11:56;;;;;;;0.65;0.10;;;;;;;9.64;100.00;99794.16;6339726;22;20036;-56
2021/10/22 05:15:00;;;;;;;0.10;0.10;;;;;;;9.61;100.00;99803.44;6339532;22;20504;-56
2021/10/22 05:18:03;;;;;;;0.10;0.10;;;;;;;9.63;100.00;99795.41;6339463;22;20040;-56
2021/10/22 05:21:06;;;;;;;0.32;0.20;;;;;;;9.66;100.00;99798.00;6339873;22;20022;-56
2021/10/22 05:24:09;;;;;;;1.15;0.25;;;;;;;9.70;100.00;99800.63;6339441;22;20022;-56
2021/10/22 05:27:12;;;;;;;4.22;0.55;;;;;;;9.69;100.00;99796.28;6340013;22;20084;-56
2021/10/22 05:30:15;;;;;;;0.43;0.43;;;;;;;9.70;100.00;99803.41;6339578;22;20022;-56
2021/10/22 05:33:19;;;;;;;0.10;0.10;;;;;;;9.68;100.00;99801.09;6339917;22;20442;-56
2021/10/22 05:36:24;;;;;;;0.40;0.38;;;;;;;9.74;100.00;99806.78;6339701;22;20025;-56
2021/10/22 05:39:27;;;;;;;0.20;0.15;;;;;;;9.78;100.00;99810.94;6339183;22;20038;-56
2021/10/22 05:42:30;;;;;;;0.68;0.55;;;;;;;9.82;100.00;99808.75;6339339;22;20037;-56
2021/10/22 05:45:32;;;;;;;0.40;0.40;;;;;;;9.89;100.00;99799.28;6338859;22;20454;-56
2021/10/22 05:48:36;;;;;;;2.17;0.50;;;;;;;9.93;100.00;99805.44;6339559;22;20029;-56
2021/10/22 05:51:40;;;;;;;0.50;0.13;;;;;;;9.96;100.00;99810.06;6320425;22;20075;-56
2021/10/22 05:54:46;;;;;;;0.40;0.25;;;;;;;9.92;100.00;99809.47;6320291;22;20029;-56
2021/10/22 05:57:49;;;;;;;0.17;0.10;;;;;;;9.94;100.00;99806.97;6339045;22;20037;-56
2021/10/22 06:00:51;;;;;;;0.20;0.20;;;;;;;9.99;100.00;99797.97;6339264;22;20156;-56
2021/10/22 06:03:55;;;;;;;0.20;0.20;;;;;;;10.07;100.00;99796.38;6339197;22;20037;-56
2021/10/22 06:06:58;;;;;;;0.10;0.10;;;;;;;10.12;100.00;99804.13;6339297;22;20045;-56
2021/10/22 06:10:01;;;;;;;0.10;0.10;;;;;;;10.13;100.00;99807.69;6339318;22;20022;-56
2021/10/22 06:13:04;;;;;;;0.20;0.05;;;;;;;10.11;100.00;99802.59;6339276;22;20512;-56
2021/10/22 06:16:08;;;;;;;0.30;0.30;;;;;;;10.06;100.00;99805.97;6339425;22;20038;-56
2021/10/22 06:19:22;;;;;;;0.20;0.20;;;;;;;10.00;100.00;99805.09;6339446;22;20022;-55
2021/10/22 06:25:39;;;;;;;1.00;0.40;;;;;;;10.02;100.00;99807.41;6339320;22;20071;-56
2021/10/22 06:28:42;;;;;;;4.78;0.30;;;;;;;10.03;100.00;99818.06;6339505;22;20030;-56
2021/10/22 06:31:47;;;;;;;0.20;0.20;;;;;;;10.05;100.00;99823.91;6339633;22;20021;-56
2021/10/22 06:34:50;;;;;;;0.20;0.20;;;;;;;10.06;100.00;99819.91;6339585;22;20021;-56
2021/10/22 06:37:55;;;;;;;0.20;0.20;;;;;;;10.08;100.00;99822.97;6339553;22;20058;-56
2021/10/22 06:40:58;;;;;;;0.77;0.13;;;;;;;10.10;100.00;99817.69;6339075;22;20030;-56
2021/10/22 06:44:01;;;;;;;0.10;0.10;;;;;;;10.08;100.00;99831.31;6339013;22;20017;-56
2021/10/22 06:47:04;;;;;;;0.15;0.15;;;;;;;10.14;100.00;99832.25;6338773;22;20025;-56
2021/10/22 06:50:07;;;;;;;0.10;0.10;;;;;;;10.13;100.00;99841.84;6338896;22;20090;-56
2021/10/22 06:53:11;;;;;;;0.60;0.60;;;;;;;10.18;100.00;99835.59;6319332;22;20029;-56
2021/10/22 06:56:14;;;;;;;1.05;0.88;;;;;;;10.23;100.00;99834.19;6338577;22;20144;-57
2021/10/22 06:59:16;;;;;;;1.10;0.52;;;;;;;10.21;100.00;99836.69;6338651;22;20076;-57
2021/10/22 07:02:19;;;;;;;0.25;0.25;;;;;;;10.22;100.00;99841.03;6339125;22;20087;-56
2021/10/22 07:08:32;;;;;;;1.00;0.25;;;;;;;10.26;100.00;99847.94;6339010;22;20076;-57
2021/10/22 07:11:36;;;;;;;3.13;0.25;;;;;;;10.24;100.00;99858.00;6338428;22;20390;-58
2021/10/22 07:14:48;;;;;;;4.13;0.38;;;;;;;10.23;100.00;99862.03;6338735;22;20026;-57
2021/10/22 07:17:59;;;;;;;0.47;0.20;;;;;;;10.21;100.00;99859.72;6338760;22;20072;-57
2021/10/22 07:21:03;;;;;;;0.25;0.15;;;;;;;10.24;100.00;99874.72;6319710;22;20098;-57
2021/10/22 07:24:12;;;;;;;0.28;0.20;;;;;;;10.28;100.00;99870.50;6338411;22;20076;-58
2021/10/22 07:27:15;;;;;;;0.10;0.10;;;;;;;10.31;100.00;99869.53;6338836;22;20022;-58
2021/10/22 07:30:19;;;;;;;0.93;0.47;;;;;;;10.39;100.00;99867.97;6319926;22;20018;-57
2021/10/22 07:33:22;;;;;;;1.70;0.52;;;;;;;10.41;100.00;99879.41;6320030;22;20024;-58
2021/10/22 07:36:26;;;;;;;0.65;0.45;;;;;;;10.38;100.00;99891.47;6338839;22;20047;-58
2021/10/22 07:39:29;;;;;;;0.20;0.10;;;;;;;10.40;100.00;99888.19;6338768;22;20393;-60
2021/10/22 07:42:35;;;;;;;0.22;0.22;;;;;;;10.43;100.00;99896.41;6338741;22;20088;-61
2021/10/22 07:45:41;;;;;;;0.57;0.25;;;;;;;10.50;100.00;99912.72;6338372;22;20025;-60
2021/10/22 07:48:45;;;;;;;0.10;0.00;;;;;;;10.54;100.00;99909.78;6338468;22;20508;-60
2021/10/22 07:51:48;;;;;;;0.20;0.13;;;;;;;10.57;100.00;99926.31;6338887;22;20346;-60
2021/10/22 07:54:52;;;;;;;8.98;0.95;;;;;;;10.63;100.00;99935.53;6338027;22;20029;-60
2021/10/22 07:57:54;;;;;;;0.20;0.10;;;;;;;10.73;100.00;99927.13;6338422;22;20077;-59
2021/10/22 08:00:57;;;;;;;0.65;0.25;;;;;;;10.79;100.00;99933.59;6338208;22;20075;-59
2021/10/22 08:04:01;;;;;;;0.20;0.20;;;;;;;10.89;100.00;99923.94;6338432;22;20390;-60
2021/10/22 08:07:04;;;;;;;0.52;0.40;;;;;;;10.97;100.00;99927.88;6338279;22;20021;-59
2021/10/22 08:10:08;;;;;;;1.75;0.45;;;;;;;10.96;100.00;99934.72;6338396;22;20033;-60
2021/10/22 08:13:12;;;;;;;0.52;0.25;;;;;;;10.87;100.00;99943.13;6319274;22;20025;-60
2021/10/22 08:16:15;;;;;;;3.70;0.50;;;;;;;10.87;100.00;99937.56;6319065;22;20026;-60
2021/10/22 08:19:19;;;;;;;1.08;0.50;;;;;;;10.89;100.00;99952.56;6338759;22;20025;-60
2021/10/22 08:22:30;;;;;;;1.27;0.30;;;;;;;10.87;100.00;99962.66;6338302;22;20582;-61
2021/10/22 08:25:33;;;;;;;1.02;0.57;;;;;;;10.91;100.00;99971.59;6338254;22;20389;-61
2021/10/22 08:28:36;;;;;;;0.10;0.10;;;;;;;10.89;100.00;99974.09;6337746;22;20490;-60
2021/10/22 08:31:43;;;;;;;0.10;0.10;;;;;;;10.85;100.00;99977.03;6338625;22;20022;-61
2021/10/22 08:34:47;;;;;;;3.05;0.60;;;;;;;10.80;100.00;99986.06;6338251;22;20022;-61
2021/10/22 08:37:50;;;;;;;0.10;0.10;;;;;;;10.83;100.00;99992.69;6338507;22;20478;-61
2021/10/22 08:40:55;;;;;;;7.90;1.02;;;;;;;10.87;100.00;99998.88;6337816;22;20029;-61
2021/10/22 08:43:59;;;;;;;0.20;0.20;;;;;;;10.93;100.00;99999.75;6338141;22;20022;-60
2021/10/22 08:47:02;;;;;;;0.10;0.00;;;;;;;10.97;100.00;100014.25;6337906;22;20021;-61
2021/10/22 08:50:09;;;;;;;0.40;0.15;;;;;;;10.99;100.00;100018.13;6338314;22;20053;-59
2021/10/22 08:53:12;;;;;;;0.10;0.10;;;;;;;11.02;100.00;100021.97;6337808;22;20038;-59
2021/10/22 08:56:16;;;;;;;4.22;0.43;;;;;;;11.05;100.00;100029.38;6318736;22;20098;-61
2021/10/22 08:59:19;;;;;;;0.55;0.30;;;;;;;11.15;100.00;100026.06;6338035;22;20045;-60
2021/10/22 09:02:25;;;;;;;0.20;0.05;;;;;;;11.25;100.00;100029.56;6320685;22;20030;-60
2021/10/22 09:05:28;;;;;;;0.20;0.20;;;;;;;11.37;100.00;100028.53;6339452;22;20061;-60
2021/10/22 09:08:36;;;;;;;0.73;0.73;;;;;;;11.49;100.00;100033.09;6339885;22;20062;-61
2021/10/22 09:11:47;;;;;;;0.57;0.50;;;;;;;11.54;100.00;100029.66;6339557;22;20510;-60
2021/10/22 09:15:03;;;;;;;0.68;0.40;;;;;;;11.67;100.00;100044.13;6339480;22;20021;-60
2021/10/22 09:18:33;;;;;;;1.15;0.40;;;;;;;11.62;100.00;100044.75;6339518;22;20387;-61
2021/10/22 09:21:36;;;;;;;3.50;0.40;;;;;;;11.60;100.00;100043.69;6339463;22;20128;-62
2021/10/22 09:24:38;;;;;;;1.67;0.52;;;;;;;11.75;100.00;100039.72;6339524;22;20025;-62
2021/10/22 09:28:11;;;;;;;0.68;0.45;;;;;;;11.80;100.00;100041.81;6339343;22;20037;-62
2021/10/22 09:31:17;;;;;;;0.38;0.38;;;;;;;11.91;100.00;100052.44;6339723;22;20434;-61
2021/10/22 09:34:34;;;;;;;0.45;0.20;;;;;;;11.98;100.00;100046.44;6339393;22;20021;-61
2021/10/22 09:37:41;;;;;;;2.05;0.40;;;;;;;11.97;100.00;100054.06;6339949;22;20368;-61
2021/10/22 09:40:46;;;;;;;1.10;0.25;;;;;;;12.10;100.00;100062.94;6339089;22;20100;-60
2021/10/22 09:43:49;;;;;;;2.47;0.60;;;;;;;12.29;100.00;100065.53;6339746;22;20021;-60
2021/10/22 09:47:14;;;;;;;0.28;0.28;;;;;;;12.27;100.00;100079.19;6339253;22;20080;-60
2021/10/22 09:50:25;;;;;;;2.47;0.22;;;;;;;12.19;100.00;100076.78;6339700;22;20081;-60
2021/10/22 09:53:34;;;;;;;0.55;0.20;;;;;;;12.23;100.00;100084.22;6339250;22;20087;-60
2021/10/22 09:56:39;;;;;;;1.15;0.35;;;;;;;12.30;100.00;100078.25;6339430;22;20488;-60
2021/10/22 09:59:43;;;;;;;1.90;0.40;;;;;;;12.31;100.00;100074.97;6338946;22;20486;-60
2021/10/22 10:02:47;;;;;;;0.63;0.30;;;;;;;12.24;100.00;100086.50;6338948;22;20022;-61
2021/10/22 10:05:51;;;;;;;0.20;0.10;;;;;;;12.24;100.00;100092.09;6319206;22;20071;-60
2021/10/22 10:08:54;;;;;;;3.50;0.70;;;;;;;12.28;100.00;100094.72;6338635;22;20095;-57
2021/10/22 10:12:01;;;;;;;2.13;0.45;;;;;;;12.32;100.00;100086.91;6338271;22;20446;-58
2021/10/22 10:15:07;;;;;;;1.35;0.20;;;;;;;12.29;100.00;100093.44;6338692;22;20360;-56
2021/10/22 10:18:16;;;;;;;0.65;0.40;;;;;;;12.35;100.00;100097.88;6339166;22;20115;-57
2021/10/22 10:21:21;;;;;;;0.40;0.20;;;;;;;12.49;100.00;100113.09;6338893;22;20022;-57
2021/10/22 10:24:38;;;;;;;0.50;0.50;;;;;;;12.72;100.00;100128.97;6339130;22;20057;-57
2021/10/22 10:27:50;;;;;;;0.20;0.20;;;;;;;12.79;100.00;100120.19;6338926;22;20516;-57
2021/10/22 10:30:53;;;;;;;0.30;0.28;;;;;;;12.78;100.00;100129.81;6339434;22;20567;-57
2021/10/22 10:34:02;;;;;;;3.85;0.50;;;;;;;12.80;100.00;100121.72;6339170;22;20339;-57
2021/10/22 10:37:22;;;;;;;0.30;0.20;;;;;;;12.77;100.00;100117.13;6338958;22;20021;-57
2021/10/22 10:40:31;;;;;;;3.42;1.05;;;;;;;12.74;100.00;100120.88;6338853;22;20191;-57
2021/10/22 10:43:35;;;;;;;0.30;0.20;;;;;;;12.61;100.00;100121.19;6339191;22;20057;-57
2021/10/22 10:46:38;;;;;;;0.93;0.30;;;;;;;12.54;100.00;100121.56;6338769;22;20075;-56
2021/10/22 10:49:47;;;;;;;2.55;0.55;;;;;;;12.51;100.00;100124.56;6339228;22;20025;-57
2021/10/22 10:52:53;;;;;;;0.55;0.40;;;;;;;12.52;100.00;100128.88;6338891;22;20548;-57
2021/10/22 10:55:56;;;;;;;0.95;0.38;;;;;;;12.59;100.00;100134.84;6338992;22;20511;-57
2021/10/22 10:58:59;;;;;;;0.47;0.40;;;;;;;12.63;100.00;100134.66;6338939;22;20075;-56
2021/10/22 11:02:02;;;;;;;1.10;0.57;;;;;;;12.55;100.00;100139.09;6339256;22;20030;-57
2021/10/22 11:05:05;;;;;;;3.95;1.10;;;;;;;12.49;100.00;100135.44;6338782;22;20071;-57
2021/10/22 11:08:18;;;;;;;4.57;0.85;;;;;;;12.45;100.00;100138.41;6338633;22;20072;-57
2021/10/22 11:11:27;;;;;;;0.35;0.20;;;;;;;12.44;100.00;100162.03;6338659;22;20021;-58
2021/10/22 11:14:52;;;;;;;0.52;0.35;;;;;;;12.44;100.00;100172.41;6338776;22;20466;-58
2021/10/22 11:17:56;;;;;;;2.70;0.75;;;;;;;12.48;100.00;100176.56;6339003;22;20029;-57
2021/10/22 11:20:59;;;;;;;4.88;1.48;;;;;;;12.56;100.00;100174.19;6319578;22;20025;-58
2021/10/22 11:24:04;;;;;;;1.50;1.38;;;;;;;12.53;100.00;100186.31;6338475;22;20091;-58
2021/10/22 11:27:09;;;;;;;2.85;1.08;;;;;;;12.58;100.00;100188.44;6339095;22;20486;-59
2021/10/22 11:30:12;;;;;;;0.75;0.40;;;;;;;12.66;100.00;100178.41;6338716;22;20486;-58
2021/10/22 11:33:17;;;;;;;2.28;0.80;;;;;;;12.86;100.00;100182.03;6319746;22;20075;-58
2021/10/22 11:36:20;;;;;;;5.20;0.77;;;;;;;12.95;100.00;100175.56;6338902;22;20025;-58
2021/10/22 11:39:37;;;;;;;8.13;0.73;;;;;;;13.01;100.00;100173.66;6338704;22;20482;-58
2021/10/22 11:42:40;;;;;;;0.57;0.15;;;;;;;12.96;100.00;100179.94;6338484;22;20088;-58
2021/10/22 11:45:50;;;;;;;0.60;0.47;;;;;;;12.88;100.00;100189.97;6338496;22;20087;-59
2021/10/22 11:48:54;;;;;;;0.17;0.17;;;;;;;12.76;100.00;100194.59;6337961;22;20398;-58
2021/10/22 11:52:02;;;;;;;0.30;0.30;;;;;;;12.61;100.00;100204.22;6338874;22;20041;-58
2021/10/22 11:55:06;;;;;;;0.15;0.10;;;;;;;12.42;100.00;100197.28;6319084;22;20018;-57
2021/10/22 11:58:11;;;;;;;3.30;0.80;;;;;;;12.25;100.00;100198.97;6318418;22;20110;-58
2021/10/22 12:01:14;;;;;;;0.40;0.40;;;;;;;12.18;100.00;100203.69;6318952;22;20516;-57
2021/10/22 12:04:25;;;;;;;0.10;0.10;;;;;;;12.11;100.00;100206.06;6338286;22;20077;-57
2021/10/22 12:07:30;;;;;;;2.08;0.90;;;;;;;12.11;100.00;100206.84;6338595;22;20021;-57
2021/10/22 12:10:37;;;;;;;0.98;0.20;;;;;;;12.15;100.00;100207.44;6338097;22;20017;-57
2021/10/22 12:13:43;;;;;;;1.13;0.43;;;;;;;12.36;100.00;100204.78;6338167;22;20026;-56
2021/10/22 12:16:46;;;;;;;2.28;0.50;;;;;;;12.61;100.00;100204.22;6318935;22;20093;-56
2021/10/22 12:19:50;;;;;;;0.20;0.17;;;;;;;12.88;100.00;100195.56;6319277;22;20342;-56
2021/10/22 12:22:59;;;;;;;0.80;0.38;;;;;;;13.28;100.00;100206.13;6338145;22;20025;-56
2021/10/22 12:26:02;;;;;;;5.05;0.57;;;;;;;13.62;100.00;100203.31;6338106;22;20130;-56
2021/10/22 12:29:08;;;;;;;4.57;0.73;;;;;;;13.91;100.00;100218.47;6319106;22;20025;-56
2021/10/22 12:32:24;;;;;;;4.72;0.68;;;;;;;14.04;100.00;100216.09;6338321;22;20098;-57
2021/10/22 12:35:35;;;;;;;4.50;0.63;;;;;;;13.86;100.00;100219.19;6340392;22;20128;-56
2021/10/22 12:38:38;;;;;;;0.17;0.07;;;;;;;13.62;100.00;100213.78;6340312;22;20026;-56
2021/10/22 12:41:42;;;;;;;2.22;0.63;;;;;;;13.56;100.00;100216.47;6339704;22;20335;-56
2021/10/22 12:44:46;;;;;;;6.45;1.33;;;;;;;13.58;100.00;100225.16;6339821;22;20053;-56
2021/10/22 12:47:50;;;;;;;1.67;0.70;;;;;;;13.79;100.00;100227.97;6339780;22;20348;-56
2021/10/22 12:50:54;;;;;;;5.43;0.93;;;;;;;13.88;100.00;100216.66;6339851;22;20331;-56
2021/10/22 12:54:03;;;;;;;0.40;0.20;;;;;;;13.72;100.00;100234.75;6320176;22;20029;-56
2021/10/22 12:57:06;;;;;;;0.77;0.50;;;;;;;13.60;100.00;100227.44;6339777;22;20137;-56
2021/10/22 13:00:28;;;;;;;0.90;0.17;;;;;;;13.43;100.00;100218.81;6339788;22;20084;-56
2021/10/22 13:03:31;;;;;;;2.67;0.22;;;;;;;13.27;100.00;100227.75;6320708;22;20026;-56
2021/10/22 13:07:14;;;;;;;5.35;0.50;;;;;;;13.11;100.00;100217.06;6339447;22;20083;-56
2021/10/22 13:11:22;;;;;;;0.40;0.40;;;;;;;13.00;100.00;100232.84;6339596;22;20021;-56
2021/10/22 13:14:17;;;;;;;0.20;0.20;;;;;;;13.07;100.00;100230.47;6339677;22;20078;-56
2021/10/22 13:20:46;;;;;;;0.32;0.32;;;;;;;13.54;100.00;100235.78;6339569;22;20025;-56
2021/10/22 13:23:49;;;;;;;5.57;0.68;;;;;;;13.52;100.00;100243.88;6320380;22;20026;-56
2021/10/22 13:26:52;;;;;;;0.55;0.55;;;;;;;13.56;100.00;100252.84;6339513;22;20061;-56
2021/10/22 13:29:59;;;;;;;0.73;0.20;;;;;;;13.47;100.00;100258.56;6339382;22;20026;-56
2021/10/22 13:33:05;;;;;;;0.15;0.13;;;;;;;13.26;100.00;100254.16;6339639;22;20021;-56
2021/10/22 13:36:09;;;;;;;0.10;0.00;;;;;;;13.03;100.00;100257.03;6339707;22;20516;-56
2021/10/22 13:39:12;;;;;;;0.25;0.15;;;;;;;13.27;100.00;100263.34;6339832;22;20068;-56
2021/10/22 13:42:16;;;;;;;0.40;0.40;;;;;;;13.63;100.00;100258.06;6339340;22;20341;-55
2021/10/22 13:45:20;;;;;;;13.35;1.05;;;;;;;13.85;100.00;100259.63;6338643;22;20470;-57
2021/10/22 13:48:23;;;;;;;1.13;0.15;;;;;;;13.85;100.00;100276.41;6339115;22;20351;-57
2021/10/22 13:51:27;;;;;;;0.10;0.10;;;;;;;13.75;100.00;100272.22;6338889;22;20096;-57
2021/10/22 13:54:32;;;;;;;1.35;0.30;;;;;;;13.64;100.00;100284.03;6338958;22;20386;-58
2021/10/22 13:57:37;;;;;;;0.20;0.10;;;;;;;13.51;100.00;100280.75;6339250;22;20025;-58
2021/10/22 14:00:40;;;;;;;0.50;0.10;;;;;;;13.37;100.00;100279.53;6338898;22;20029;-62
2021/10/22 14:03:45;;;;;;;0.75;0.20;;;;;;;13.29;100.00;100272.78;6339286;22;20117;-61
2021/10/22 14:06:48;;;;;;;1.55;0.40;;;;;;;13.30;100.00;100277.13;6339594;22;20026;-61
2021/10/22 14:09:54;;;;;;;0.55;0.43;;;;;;;13.36;100.00;100275.16;6339247;22;20148;-61
2021/10/22 14:13:09;;;;;;;0.10;0.10;;;;;;;13.50;100.00;100284.81;6339441;22;20355;-61
2021/10/22 14:29:45;;;;;;;0.20;0.10;;;;;;;13.25;100.00;100286.19;6339211;22;20087;-60
2021/10/22 14:32:48;;;;;;;9.77;0.20;;;;;;;13.24;100.00;100295.84;6338761;22;20026;-61
2021/10/22 14:35:52;;;;;;;7.30;0.20;;;;;;;13.17;100.00;100293.41;6338931;22;20446;-62
2021/10/22 14:38:55;;;;;;;0.10;0.10;;;;;;;13.00;100.00;100295.13;6339241;22;20041;-62
2021/10/22 14:42:01;;;;;;;0.20;0.20;;;;;;;12.92;100.00;100303.13;6338918;22;20347;-63
2021/10/22 14:45:07;;;;;;;0.52;0.20;;;;;;;12.83;100.00;100300.41;6339128;22;20026;-62
2021/10/22 14:48:14;;;;;;;0.10;0.10;;;;;;;12.80;100.00;100311.78;6338973;22;20021;-63